| time (UTC) | temp C | wind direction | speed KPH | gust KPH | rain 1hr cm | rain 24hr cm | rain mn cm | humidity % | barometer mb |
| 20260507181331 | 17 | 187 | 3.2 | 4.8 | 0.00 | 0.28 | 0.05 | 71 | 1011.5 |
| 20260507180328 | 17 | 200 | 3.2 | 4.8 | 0.00 | 0.30 | 0.05 | 69 | 1011.4 |
| 20260507174329 | 18 | 227 | 3.2 | 4.8 | 0.00 | 0.33 | 0.05 | 68 | 1011.0 |
| 20260507173330 | 18 | 254 | 4.8 | 11.3 | 0.00 | 0.43 | 0.05 | 66 | 1010.9 |
| 20260507172328 | 18 | 272 | 8.0 | 14.5 | 0.00 | 0.51 | 0.05 | 63 | 1010.8 |
| 20260507171323 | 18 | 250 | 6.4 | 12.9 | 0.00 | 0.53 | 0.05 | 62 | 1010.7 |
| 20260507170323 | 18 | 282 | 4.8 | 14.5 | 0.00 | 0.53 | 0.05 | 62 | 1010.6 |
| 20260507165322 | 19 | 282 | 4.8 | 12.9 | 0.00 | 0.53 | 0.05 | 62 | 1010.5 |
| 20260507164323 | 20 | 270 | 8.0 | 14.5 | 0.00 | 0.71 | 0.05 | 59 | 1010.5 |
| 20260507163323 | 19 | 293 | 4.8 | 11.3 | 0.00 | 0.74 | 0.05 | 62 | 1010.5 |
| 20260507162323 | 19 | 308 | 8.0 | 16.1 | 0.00 | 0.74 | 0.05 | 60 | 1010.5 |
| 20260507161322 | 19 | 249 | 8.0 | 16.1 | 0.00 | 0.74 | 0.05 | 60 | 1010.5 |
| 20260507160322 | 20 | 271 | 6.4 | 14.5 | 0.00 | 0.74 | 0.05 | 60 | 1010.5 |
| 20260507155321 | 20 | 242 | 8.0 | 19.3 | 0.00 | 0.74 | 0.05 | 58 | 1010.5 |
| 20260507154320 | 20 | 273 | 8.0 | 20.9 | 0.00 | 0.74 | 0.05 | 58 | 1010.4 |
| 20260507153320 | 20 | 314 | 8.0 | 16.1 | 0.00 | 0.74 | 0.05 | 56 | 1010.4 |
| 20260507152320 | 20 | 269 | 8.0 | 16.1 | 0.00 | 0.74 | 0.05 | 55 | 1010.4 |
| 20260507151320 | 20 | 246 | 6.4 | 16.1 | 0.00 | 0.74 | 0.05 | 56 | 1010.4 |
| 20260507150323 | 20 | 275 | 6.4 | 14.5 | 0.00 | 0.74 | 0.05 | 53 | 1010.4 |
| 20260507145321 | 20 | 234 | 4.8 | 11.3 | 0.00 | 0.74 | 0.05 | 54 | 1010.4 |
| 20260507144320 | 21 | 236 | 6.4 | 14.5 | 0.00 | 0.74 | 0.05 | 56 | 1010.5 |
| 20260507143320 | 20 | 188 | 6.4 | 12.9 | 0.00 | 0.74 | 0.05 | 58 | 1010.5 |
| 20260507142318 | 20 | 279 | 3.2 | 9.7 | 0.00 | 0.74 | 0.05 | 54 | 1010.6 |
| 20260507141318 | 20 | 294 | 4.8 | 12.9 | 0.00 | 0.74 | 0.05 | 55 | 1010.8 |
| 20260507140318 | 20 | 319 | 4.8 | 9.7 | 0.00 | 0.74 | 0.05 | 55 | 1010.9 |
| 20260507135318 | 20 | 212 | 1.6 | 6.4 | 0.00 | 0.74 | 0.05 | 62 | 1011.0 |
| 20260507133319 | 18 | 213 | 1.6 | 6.4 | 0.00 | 0.74 | 0.05 | 59 | 1011.2 |
| 20260507132318 | 18 | 192 | 3.2 | 6.4 | 0.00 | 0.74 | 0.05 | 59 | 1011.3 |
| 20260507131319 | 18 | 123 | 4.8 | 11.3 | 0.00 | 0.74 | 0.05 | 60 | 1011.4 |
| 20260507130318 | 18 | 94 | 4.8 | 11.3 | 0.00 | 0.74 | 0.05 | 59 | 1011.4 |
| 20260507123318 | 16 | 336 | 16.1 | 30.6 | 0.00 | 0.74 | 0.05 | 73 | 1011.4 |
| 20260507121319 | 20 | 240 | 9.7 | 19.3 | 0.00 | 0.74 | 0.05 | 60 | 1011.0 |
| 20260507115322 | 21 | 273 | 8.0 | 16.1 | 0.00 | 0.74 | 0.05 | 61 | 1010.9 |
| 20260507114319 | 21 | 288 | 9.7 | 20.9 | 0.00 | 0.74 | 0.05 | 58 | 1010.9 |
| 20260507113318 | 20 | 245 | 9.7 | 19.3 | 0.00 | 0.76 | 0.05 | 58 | 1011.1 |
| 20260507111320 | 20 | 265 | 6.4 | 14.5 | 0.00 | 0.91 | 0.05 | 57 | 1011.5 |
| 20260507105316 | 19 | 314 | 6.4 | 16.1 | 0.00 | 1.02 | 0.05 | 63 | 1011.6 |
| 20260507104315 | 18 | 272 | 8.0 | 17.7 | 0.00 | 1.02 | 0.05 | 66 | 1011.6 |
| 20260507103316 | 18 | 244 | 9.7 | 19.3 | 0.00 | 1.04 | 0.05 | 65 | 1011.7 |
| 20260507102316 | 18 | 190 | 8.0 | 16.1 | 0.00 | 1.12 | 0.05 | 64 | 1011.8 |
| 20260507101316 | 18 | 291 | 8.0 | 17.7 | 0.00 | 1.14 | 0.05 | 62 | 1011.8 |
| 20260507100314 | 18 | 288 | 8.0 | 17.7 | 0.00 | 1.17 | 0.05 | 61 | 1011.9 |
| 20260507095314 | 18 | 294 | 3.2 | 14.5 | 0.00 | 1.19 | 0.05 | 62 | 1012.0 |
| 20260507094313 | 18 | 203 | 4.8 | 14.5 | 0.00 | 1.19 | 0.05 | 64 | 1012.1 |
| 20260507092312 | 17 | 227 | 6.4 | 14.5 | 0.00 | 1.19 | 0.05 | 67 | 1012.1 |
| 20260507091311 | 17 | 283 | 4.8 | 11.3 | 0.00 | 1.19 | 0.05 | 66 | 1012.1 |
| 20260507090311 | 17 | 204 | 6.4 | 12.9 | 0.00 | 1.19 | 0.05 | 66 | 1012.1 |
| 20260507085311 | 17 | 242 | 6.4 | 14.5 | 0.00 | 1.19 | 0.05 | 66 | 1012.2 |
| 20260507084312 | 17 | 225 | 6.4 | 12.9 | 0.00 | 1.19 | 0.05 | 69 | 1012.1 |
| 20260507083311 | 16 | 207 | 4.8 | 12.9 | 0.00 | 1.19 | 0.05 | 72 | 1012.1 |
| 20260507081311 | 15 | 240 | 4.8 | 9.7 | 0.00 | 1.19 | 0.05 | 72 | 1012.0 |
| 20260507080311 | 15 | 208 | 4.8 | 11.3 | 0.00 | 1.19 | 0.05 | 72 | 1012.0 |
| 20260507075311 | 14 | 273 | 1.6 | 6.4 | 0.00 | 1.19 | 0.05 | 71 | 1011.9 |
| 20260507074311 | 14 | 289 | 1.6 | 4.8 | 0.00 | 1.24 | 0.05 | 71 | 1011.9 |
| 20260507073310 | 14 | 351 | 1.6 | 4.8 | 0.00 | 1.27 | 0.05 | 73 | 1011.9 |
| 20260507072310 | 14 | 344 | 3.2 | 6.4 | 0.00 | 1.30 | 0.05 | 73 | 1011.9 |
| 20260507071306 | 14 | 34 | 3.2 | 8.0 | 0.00 | 1.35 | 0.05 | 72 | 1011.9 |
| 20260507070305 | 13 | 24 | 4.8 | 9.7 | 0.00 | 1.40 | 0.05 | 72 | 1011.9 |
| 20260507064306 | 13 | 26 | 3.2 | 6.4 | 0.00 | 1.47 | 0.05 | 76 | 1011.8 |
| 20260507063305 | 12 | 18 | 3.2 | 6.4 | 0.00 | 1.55 | 0.05 | 78 | 1011.9 |
| 20260507062306 | 12 | 0 | 1.6 | 6.4 | 0.00 | 1.63 | 0.05 | 80 | 1011.9 |
| 20260507061305 | 12 | 59 | 3.2 | 6.4 | 0.00 | 1.70 | 0.05 | 80 | 1011.8 |
| 20260507060304 | 12 | 104 | 4.8 | 11.3 | 0.00 | 1.75 | 0.05 | 80 | 1011.8 |
| 20260507055306 | 12 | 159 | 6.4 | 16.1 | 0.00 | 1.75 | 0.05 | 81 | 1011.6 |
| 20260507054308 | 12 | 52 | 4.8 | 11.3 | 0.00 | 1.80 | 0.05 | 81 | 1011.6 |
| 20260507053305 | 11 | 103 | 4.8 | 12.9 | 0.00 | 1.80 | 0.05 | 81 | 1011.5 |
| 20260507052306 | 11 | 92 | 3.2 | 8.0 | 0.00 | 1.83 | 0.05 | 84 | 1011.5 |
| 20260507051305 | 11 | 65 | 4.8 | 11.3 | 0.00 | 1.91 | 0.05 | 84 | 1011.6 |
| 20260507045306 | 11 | 34 | 3.2 | 6.4 | 0.00 | 1.98 | 0.05 | 86 | 1011.5 |
| 20260507043302 | 11 | 70 | 4.8 | 11.3 | 0.00 | 2.03 | 0.05 | 87 | 1011.5 |
| 20260507042307 | 11 | 60 | 3.2 | 6.4 | 0.00 | 2.03 | 0.05 | 88 | 1011.4 |
| 20260507041302 | 11 | 30 | 3.2 | 6.4 | 0.00 | 2.03 | 0.05 | 88 | 1011.2 |
| 20260507040301 | 11 | 63 | 1.6 | 4.8 | 0.00 | 2.03 | 0.05 | 90 | 1011.3 |
| 20260507034300 | 11 | 23 | 3.2 | 6.4 | 0.00 | 2.03 | 0.05 | 88 | 1011.2 |
| 20260507033259 | 11 | 61 | 3.2 | 8.0 | 0.00 | 2.03 | 0.05 | 86 | 1011.2 |
| 20260507032258 | 11 | 71 | 6.4 | 12.9 | 0.00 | 2.03 | 0.05 | 85 | 1011.1 |
| 20260507031257 | 11 | 69 | 3.2 | 6.4 | 0.00 | 2.03 | 0.05 | 86 | 1011.0 |
| 20260507030257 | 11 | 57 | 4.8 | 8.0 | 0.00 | 2.03 | 0.05 | 86 | 1010.9 |
| 20260507025257 | 11 | 49 | 4.8 | 9.7 | 0.00 | 2.03 | 0.05 | 87 | 1010.6 |
| 20260507024258 | 11 | 36 | 4.8 | 12.9 | 0.00 | 2.03 | 0.05 | 86 | 1010.7 |
| 20260507023258 | 11 | 71 | 6.4 | 12.9 | 0.00 | 2.03 | 0.05 | 86 | 1010.7 |
| 20260507022257 | 11 | 79 | 8.0 | 14.5 | 0.00 | 2.03 | 0.05 | 86 | 1010.7 |
| 20260507020257 | 11 | 60 | 4.8 | 11.3 | 0.00 | 2.03 | 0.05 | 87 | 1010.8 |
| 20260507015257 | 11 | 46 | 6.4 | 14.5 | 0.00 | 2.03 | 0.05 | 88 | 1010.8 |
| 20260507014259 | 11 | 58 | 4.8 | 8.0 | 0.00 | 2.03 | 0.05 | 88 | 1010.8 |
| 20260507013257 | 11 | 5 | 8.0 | 16.1 | 0.03 | 2.03 | 0.05 | 88 | 1010.6 |
| 20260507011333 | 11 | 101 | 4.8 | 6.4 | 0.05 | 2.03 | 0.05 | 88 | 1010.5 |
| 20260507005257 | 11 | 53 | 4.8 | 14.5 | 0.05 | 2.03 | 0.05 | 89 | 1010.6 |
| 20260507003255 | 11 | 51 | 4.8 | 12.9 | 0.03 | 2.03 | 0.03 | 87 | 1010.9 |
| 20260507001254 | 11 | 26 | 3.2 | 8.0 | 0.00 | 2.01 | 0.00 | 86 | 1010.8 |
| 20260507000255 | 11 | 33 | 9.7 | 17.7 | 0.00 | 2.01 | 0.00 | 85 | 1010.8 |
| 20260506235255 | 11 | 89 | 8.0 | 16.1 | 0.00 | 2.01 | 0.00 | 85 | 1010.7 |
| 20260506234255 | 11 | 101 | 11.3 | 17.7 | 0.00 | 2.01 | 0.00 | 86 | 1010.8 |
| 20260506233254 | 11 | 71 | 6.4 | 14.5 | 0.00 | 2.03 | 0.00 | 87 | 1010.8 |
| 20260506232254 | 11 | 53 | 6.4 | 16.1 | 0.00 | 2.03 | 0.00 | 87 | 1010.8 |
| 20260506231304 | 11 | 70 | 6.4 | 12.9 | 0.00 | 2.08 | 0.00 | 87 | 1010.9 |
| 20260506230307 | 11 | 87 | 4.8 | 11.3 | 0.00 | 2.08 | 0.00 | 88 | 1010.8 |
| 20260506225255 | 11 | 50 | 3.2 | 8.0 | 0.00 | 2.11 | 0.00 | 88 | 1010.9 |
| 20260506224255 | 11 | 26 | 8.0 | 17.7 | 0.00 | 2.13 | 0.00 | 85 | 1011.0 |
| 20260506223252 | 11 | 88 | 9.7 | 19.3 | 0.00 | 2.21 | 0.00 | 85 | 1010.9 |
| 20260506222252 | 11 | 98 | 6.4 | 16.1 | 0.00 | 2.21 | 0.00 | 85 | 1011.0 |
| 20260506220253 | 11 | 67 | 1.6 | 4.8 | 0.00 | 2.21 | 0.00 | 86 | 1011.1 |
| 20260506215255 | 11 | 80 | 3.2 | 4.8 | 0.00 | 2.21 | 2.21 | 85 | 1010.9 |
| 20260506214252 | 11 | 73 | 3.2 | 6.4 | 0.00 | 2.21 | 2.21 | 85 | 1010.8 |
| 20260506213251 | 11 | 71 | 6.4 | 11.3 | 0.00 | 2.21 | 2.21 | 86 | 1010.9 |
| 20260506212251 | 11 | 91 | 4.8 | 9.7 | 0.00 | 2.21 | 2.21 | 86 | 1010.9 |
| 20260506210252 | 11 | 72 | 4.8 | 14.5 | 0.00 | 2.21 | 2.21 | 84 | 1010.9 |
| 20260506205251 | 11 | 61 | 11.3 | 19.3 | 0.00 | 2.21 | 2.21 | 83 | 1010.8 |
| 20260506204252 | 11 | 107 | 9.7 | 19.3 | 0.00 | 2.21 | 2.21 | 84 | 1010.7 |
| 20260506202251 | 11 | 152 | 11.3 | 16.1 | 0.00 | 2.21 | 2.21 | 86 | 1010.7 |
| 20260506201247 | 11 | 148 | 8.0 | 20.9 | 0.00 | 2.21 | 2.21 | 86 | 1010.8 |
| 20260506200247 | 11 | 141 | 4.8 | 12.9 | 0.00 | 2.21 | 2.21 | 88 | 1010.6 |
| 20260506195247 | 11 | 76 | 4.8 | 11.3 | 0.05 | 2.21 | 2.21 | 88 | 1010.5 |
| 20260506194247 | 12 | 47 | 6.4 | 19.3 | 0.08 | 2.21 | 2.21 | 88 | 1010.5 |
| 20260506192247 | 12 | 85 | 6.4 | 12.9 | 0.20 | 2.21 | 2.21 | 93 | 1010.5 |
| 20260506191247 | 13 | 105 | 3.2 | 6.4 | 0.23 | 2.21 | 2.21 | 94 | 1010.3 |
| 20260506190247 | 12 | 30 | 1.6 | 6.4 | 0.25 | 2.21 | 2.18 | 93 | 1010.2 |
| 20260506185247 | 13 | 288 | 1.6 | 4.8 | 0.25 | 2.16 | 2.16 | 93 | 1010.3 |
| 20260506184246 | 13 | 259 | 1.6 | 4.8 | 0.23 | 2.11 | 2.11 | 93 | 1010.0 |
| 20260506183250 | 13 | 265 | 3.2 | 6.4 | 0.23 | 2.03 | 2.03 | 92 | 1009.8 |
| 20260506182245 | 13 | 124 | 4.8 | 12.9 | 0.30 | 2.01 | 1.98 | 92 | 1009.4 |